sensor_id;sensor_type;location;lat;lon;timestamp;temperature;humidity
71627;DHT22;59475;52.464;13.590;2023-05-10T00:01:51;11.75;63.43
71627;DHT22;59475;52.464;13.590;2023-05-10T00:04:17;11.73;63.52
71627;DHT22;59475;52.464;13.590;2023-05-10T00:06:42;11.67;63.54
71627;DHT22;59475;52.464;13.590;2023-05-10T00:09:08;11.59;63.72
71627;DHT22;59475;52.464;13.590;2023-05-10T00:11:33;11.54;64.12
71627;DHT22;59475;52.464;13.590;2023-05-10T00:13:58;11.44;64.00
71627;DHT22;59475;52.464;13.590;2023-05-10T00:16:24;11.40;64.16
71627;DHT22;59475;52.464;13.590;2023-05-10T00:18:49;11.39;64.12
71627;DHT22;59475;52.464;13.590;2023-05-10T00:21:15;11.27;64.13
71627;DHT22;59475;52.464;13.590;2023-05-10T00:23:40;11.27;64.21
71627;DHT22;59475;52.464;13.590;2023-05-10T00:26:05;11.15;64.84
71627;DHT22;59475;52.464;13.590;2023-05-10T00:28:31;11.06;64.93
71627;DHT22;59475;52.464;13.590;2023-05-10T00:30:57;11.01;65.18
71627;DHT22;59475;52.464;13.590;2023-05-10T00:33:22;10.94;65.44
71627;DHT22;59475;52.464;13.590;2023-05-10T00:35:48;10.89;65.63
71627;DHT22;59475;52.464;13.590;2023-05-10T00:38:13;10.82;65.87
71627;DHT22;59475;52.464;13.590;2023-05-10T00:40:39;10.79;65.98
71627;DHT22;59475;52.464;13.590;2023-05-10T00:43:05;10.77;66.17
71627;DHT22;59475;52.464;13.590;2023-05-10T00:45:32;10.72;66.28
71627;DHT22;59475;52.464;13.590;2023-05-10T00:47:59;10.72;66.36
71627;DHT22;59475;52.464;13.590;2023-05-10T00:50:26;10.68;66.57
71627;DHT22;59475;52.464;13.590;2023-05-10T00:52:51;10.68;66.53
71627;DHT22;59475;52.464;13.590;2023-05-10T00:55:17;10.71;66.48
71627;DHT22;59475;52.464;13.590;2023-05-10T00:57:43;10.68;66.62
71627;DHT22;59475;52.464;13.590;2023-05-10T01:00:09;10.64;66.78
71627;DHT22;59475;52.464;13.590;2023-05-10T01:02:34;10.65;66.92
71627;DHT22;59475;52.464;13.590;2023-05-10T01:05:01;10.58;67.04
71627;DHT22;59475;52.464;13.590;2023-05-10T01:07:27;10.61;67.09
71627;DHT22;59475;52.464;13.590;2023-05-10T01:09:52;10.57;67.23
71627;DHT22;59475;52.464;13.590;2023-05-10T01:12:18;10.54;67.27
71627;DHT22;59475;52.464;13.590;2023-05-10T01:14:43;10.50;67.47
71627;DHT22;59475;52.464;13.590;2023-05-10T01:17:10;10.44;67.57
71627;DHT22;59475;52.464;13.590;2023-05-10T01:19:37;10.43;67.74
71627;DHT22;59475;52.464;13.590;2023-05-10T01:33:05;10.39;68.08
71627;DHT22;59475;52.464;13.590;2023-05-10T01:35:37;10.34;68.20
71627;DHT22;59475;52.464;13.590;2023-05-10T01:43:30;10.19;68.74
71627;DHT22;59475;52.464;13.590;2023-05-10T01:46:08;10.14;68.96
71627;DHT22;59475;52.464;13.590;2023-05-10T01:48:47;10.13;69.05
71627;DHT22;59475;52.464;13.590;2023-05-10T01:51:19;10.12;69.18
71627;DHT22;59475;52.464;13.590;2023-05-10T01:53:47;10.08;69.41
71627;DHT22;59475;52.464;13.590;2023-05-10T01:56:14;10.03;69.41
71627;DHT22;59475;52.464;13.590;2023-05-10T01:58:43;10.06;69.53
71627;DHT22;59475;52.464;13.590;2023-05-10T02:01:11;10.02;69.50
71627;DHT22;59475;52.464;13.590;2023-05-10T02:03:38;10.01;69.57
71627;DHT22;59475;52.464;13.590;2023-05-10T02:06:04;9.99;69.65
71627;DHT22;59475;52.464;13.590;2023-05-10T02:08:31;9.99;69.66
71627;DHT22;59475;52.464;13.590;2023-05-10T02:10:58;9.93;69.83
71627;DHT22;59475;52.464;13.590;2023-05-10T02:13:25;9.93;69.87
71627;DHT22;59475;52.464;13.590;2023-05-10T02:15:52;9.91;69.88
71627;DHT22;59475;52.464;13.590;2023-05-10T02:18:18;9.92;69.77
71627;DHT22;59475;52.464;13.590;2023-05-10T02:20:45;9.89;69.90
71627;DHT22;59475;52.464;13.590;2023-05-10T02:23:12;9.86;70.03
71627;DHT22;59475;52.464;13.590;2023-05-10T02:25:39;9.84;70.13
71627;DHT22;59475;52.464;13.590;2023-05-10T02:28:05;9.79;70.37
71627;DHT22;59475;52.464;13.590;2023-05-10T02:30:33;9.74;70.51
71627;DHT22;59475;52.464;13.590;2023-05-10T02:32:59;9.74;70.57
71627;DHT22;59475;52.464;13.590;2023-05-10T02:35:26;9.71;70.48
71627;DHT22;59475;52.464;13.590;2023-05-10T02:37:53;9.68;70.59
71627;DHT22;59475;52.464;13.590;2023-05-10T02:40:19;9.62;70.82
71627;DHT22;59475;52.464;13.590;2023-05-10T02:42:45;9.62;70.86
71627;DHT22;59475;52.464;13.590;2023-05-10T02:45:22;9.54;71.06
71627;DHT22;59475;52.464;13.590;2023-05-10T02:47:48;9.52;71.02
71627;DHT22;59475;52.464;13.590;2023-05-10T02:50:14;9.48;71.16
71627;DHT22;59475;52.464;13.590;2023-05-10T02:52:43;9.50;71.13
71627;DHT22;59475;52.464;13.590;2023-05-10T02:55:12;9.48;71.28
71627;DHT22;59475;52.464;13.590;2023-05-10T02:57:43;9.46;71.25
71627;DHT22;59475;52.464;13.590;2023-05-10T03:00:11;9.51;71.02
71627;DHT22;59475;52.464;13.590;2023-05-10T03:02:36;9.47;71.10
71627;DHT22;59475;52.464;13.590;2023-05-10T03:05:02;9.46;71.08
71627;DHT22;59475;52.464;13.590;2023-05-10T03:07:28;9.46;71.12
71627;DHT22;59475;52.464;13.590;2023-05-10T03:09:53;9.41;71.18
71627;DHT22;59475;52.464;13.590;2023-05-10T03:12:56;9.41;71.18
71627;DHT22;59475;52.464;13.590;2023-05-10T03:16:03;9.37;71.40
71627;DHT22;59475;52.464;13.590;2023-05-10T03:21:50;9.29;71.39
71627;DHT22;59475;52.464;13.590;2023-05-10T03:24:20;9.29;71.47
71627;DHT22;59475;52.464;13.590;2023-05-10T03:26:47;9.27;71.46
71627;DHT22;59475;52.464;13.590;2023-05-10T03:29:14;9.30;71.33
71627;DHT22;59475;52.464;13.590;2023-05-10T03:31:40;9.26;71.50
71627;DHT22;59475;52.464;13.590;2023-05-10T03:34:06;9.27;71.39
71627;DHT22;59475;52.464;13.590;2023-05-10T03:36:32;9.30;71.13
71627;DHT22;59475;52.464;13.590;2023-05-10T03:38:57;9.36;70.93
71627;DHT22;59475;52.464;13.590;2023-05-10T03:41:23;9.36;70.91
71627;DHT22;59475;52.464;13.590;2023-05-10T03:43:48;9.40;70.88
71627;DHT22;59475;52.464;13.590;2023-05-10T03:46:13;9.41;70.88
71627;DHT22;59475;52.464;13.590;2023-05-10T03:48:39;9.46;70.67
71627;DHT22;59475;52.464;13.590;2023-05-10T03:51:04;9.46;70.75
71627;DHT22;59475;52.464;13.590;2023-05-10T03:53:30;9.46;70.75
71627;DHT22;59475;52.464;13.590;2023-05-10T03:55:55;9.44;70.75
71627;DHT22;59475;52.464;13.590;2023-05-10T03:58:20;9.51;70.53
71627;DHT22;59475;52.464;13.590;2023-05-10T04:00:47;9.57;70.31
71627;DHT22;59475;52.464;13.590;2023-05-10T04:03:12;9.55;70.52
71627;DHT22;59475;52.464;13.590;2023-05-10T04:05:38;9.62;70.25
71627;DHT22;59475;52.464;13.590;2023-05-10T04:08:03;9.62;70.27
71627;DHT22;59475;52.464;13.590;2023-05-10T04:10:29;9.68;69.95
71627;DHT22;59475;52.464;13.590;2023-05-10T04:12:55;9.68;70.03
71627;DHT22;59475;52.464;13.590;2023-05-10T04:15:20;9.68;70.01
71627;DHT22;59475;52.464;13.590;2023-05-10T04:17:46;9.71;70.07
71627;DHT22;59475;52.464;13.590;2023-05-10T04:20:12;9.73;69.94
71627;DHT22;59475;52.464;13.590;2023-05-10T04:22:37;9.78;69.84
71627;DHT22;59475;52.464;13.590;2023-05-10T04:25:03;9.84;69.79
71627;DHT22;59475;52.464;13.590;2023-05-10T04:27:29;9.85;69.90
71627;DHT22;59475;52.464;13.590;2023-05-10T04:29:55;9.89;69.74
71627;DHT22;59475;52.464;13.590;2023-05-10T04:32:20;9.98;69.61
71627;DHT22;59475;52.464;13.590;2023-05-10T04:34:46;10.03;69.46
71627;DHT22;59475;52.464;13.590;2023-05-10T04:37:11;10.09;69.25
71627;DHT22;59475;52.464;13.590;2023-05-10T04:39:37;10.14;69.41
71627;DHT22;59475;52.464;13.590;2023-05-10T04:42:02;10.22;69.18
71627;DHT22;59475;52.464;13.590;2023-05-10T04:44:28;10.30;68.99
71627;DHT22;59475;52.464;13.590;2023-05-10T04:46:54;10.36;69.02
71627;DHT22;59475;52.464;13.590;2023-05-10T04:49:20;10.44;68.35
71627;DHT22;59475;52.464;13.590;2023-05-10T04:51:45;10.60;68.16
71627;DHT22;59475;52.464;13.590;2023-05-10T04:54:11;10.63;68.42
71627;DHT22;59475;52.464;13.590;2023-05-10T04:56:36;10.77;67.40
71627;DHT22;59475;52.464;13.590;2023-05-10T04:59:02;10.84;67.15
71627;DHT22;59475;52.464;13.590;2023-05-10T05:01:27;10.88;67.23
71627;DHT22;59475;52.464;13.590;2023-05-10T05:03:53;10.98;67.16
71627;DHT22;59475;52.464;13.590;2023-05-10T05:06:18;11.04;66.99
71627;DHT22;59475;52.464;13.590;2023-05-10T05:08:44;11.13;66.67
71627;DHT22;59475;52.464;13.590;2023-05-10T05:11:09;11.23;66.57
71627;DHT22;59475;52.464;13.590;2023-05-10T05:13:34;11.34;65.88
71627;DHT22;59475;52.464;13.590;2023-05-10T05:16:02;11.44;66.23
71627;DHT22;59475;52.464;13.590;2023-05-10T05:18:28;11.56;65.86
71627;DHT22;59475;52.464;13.590;2023-05-10T05:20:53;11.66;65.97
71627;DHT22;59475;52.464;13.590;2023-05-10T05:23:19;11.78;65.29
71627;DHT22;59475;52.464;13.590;2023-05-10T05:25:46;11.95;64.66
71627;DHT22;59475;52.464;13.590;2023-05-10T05:28:11;12.11;63.83
71627;DHT22;59475;52.464;13.590;2023-05-10T05:30:37;12.30;62.79
71627;DHT22;59475;52.464;13.590;2023-05-10T05:33:03;12.42;62.89
71627;DHT22;59475;52.464;13.590;2023-05-10T05:35:28;12.53;62.94
71627;DHT22;59475;52.464;13.590;2023-05-10T05:37:54;12.67;62.16
71627;DHT22;59475;52.464;13.590;2023-05-10T05:40:19;12.87;61.68
71627;DHT22;59475;52.464;13.590;2023-05-10T05:42:45;12.98;61.04
71627;DHT22;59475;52.464;13.590;2023-05-10T05:45:11;13.14;61.25
71627;DHT22;59475;52.464;13.590;2023-05-10T05:47:39;13.29;60.70
71627;DHT22;59475;52.464;13.590;2023-05-10T05:50:05;13.45;60.54
71627;DHT22;59475;52.464;13.590;2023-05-10T05:52:31;13.65;60.04
71627;DHT22;59475;52.464;13.590;2023-05-10T05:54:57;13.78;59.72
71627;DHT22;59475;52.464;13.590;2023-05-10T05:57:22;13.95;58.94
71627;DHT22;59475;52.464;13.590;2023-05-10T05:59:48;14.08;58.33
71627;DHT22;59475;52.464;13.590;2023-05-10T06:02:13;14.20;58.41
71627;DHT22;59475;52.464;13.590;2023-05-10T06:04:39;14.31;58.51
71627;DHT22;59475;52.464;13.590;2023-05-10T06:07:04;14.55;57.57
71627;DHT22;59475;52.464;13.590;2023-05-10T06:09:30;14.72;57.16
71627;DHT22;59475;52.464;13.590;2023-05-10T06:11:55;14.84;56.44
71627;DHT22;59475;52.464;13.590;2023-05-10T06:14:21;14.98;56.43
71627;DHT22;59475;52.464;13.590;2023-05-10T06:16:47;15.11;55.48
71627;DHT22;59475;52.464;13.590;2023-05-10T06:19:12;15.27;55.69
71627;DHT22;59475;52.464;13.590;2023-05-10T06:21:37;15.45;55.68
71627;DHT22;59475;52.464;13.590;2023-05-10T06:24:03;15.70;55.35
71627;DHT22;59475;52.464;13.590;2023-05-10T06:26:29;15.91;54.61
71627;DHT22;59475;52.464;13.590;2023-05-10T06:28:54;15.91;53.80
71627;DHT22;59475;52.464;13.590;2023-05-10T06:31:20;16.01;53.60
71627;DHT22;59475;52.464;13.590;2023-05-10T06:33:45;16.08;53.55
71627;DHT22;59475;52.464;13.590;2023-05-10T06:36:11;16.14;52.71
71627;DHT22;59475;52.464;13.590;2023-05-10T06:38:36;16.32;53.69
71627;DHT22;59475;52.464;13.590;2023-05-10T06:41:02;16.51;52.36
71627;DHT22;59475;52.464;13.590;2023-05-10T06:43:28;16.58;52.37
71627;DHT22;59475;52.464;13.590;2023-05-10T06:45:54;16.76;52.09
71627;DHT22;59475;52.464;13.590;2023-05-10T06:48:19;16.92;51.46
71627;DHT22;59475;52.464;13.590;2023-05-10T06:50:44;16.96;51.68
71627;DHT22;59475;52.464;13.590;2023-05-10T06:53:10;17.20;51.44
71627;DHT22;59475;52.464;13.590;2023-05-10T06:55:36;17.31;50.66
71627;DHT22;59475;52.464;13.590;2023-05-10T06:58:02;17.49;50.17
71627;DHT22;59475;52.464;13.590;2023-05-10T07:00:27;17.86;50.39
71627;DHT22;59475;52.464;13.590;2023-05-10T07:02:52;18.52;48.92
71627;DHT22;59475;52.464;13.590;2023-05-10T07:05:18;18.92;47.39
71627;DHT22;59475;52.464;13.590;2023-05-10T07:07:43;19.00;47.24
71627;DHT22;59475;52.464;13.590;2023-05-10T07:10:09;18.84;47.06
71627;DHT22;59475;52.464;13.590;2023-05-10T07:12:34;18.71;46.93
71627;DHT22;59475;52.464;13.590;2023-05-10T07:15:00;18.68;46.93
71627;DHT22;59475;52.464;13.590;2023-05-10T07:17:25;18.99;46.60
71627;DHT22;59475;52.464;13.590;2023-05-10T07:19:51;19.38;46.07
71627;DHT22;59475;52.464;13.590;2023-05-10T07:22:17;19.64;45.18
71627;DHT22;59475;52.464;13.590;2023-05-10T07:24:42;19.79;45.05
71627;DHT22;59475;52.464;13.590;2023-05-10T07:27:08;19.81;44.89
71627;DHT22;59475;52.464;13.590;2023-05-10T07:29:34;19.75;44.73
71627;DHT22;59475;52.464;13.590;2023-05-10T07:32:00;19.85;44.63
71627;DHT22;59475;52.464;13.590;2023-05-10T07:34:26;19.71;44.91
71627;DHT22;59475;52.464;13.590;2023-05-10T07:36:52;19.88;44.89
71627;DHT22;59475;52.464;13.590;2023-05-10T07:39:17;20.15;44.52
71627;DHT22;59475;52.464;13.590;2023-05-10T07:41:42;20.04;44.14
71627;DHT22;59475;52.464;13.590;2023-05-10T07:44:08;20.26;44.22
71627;DHT22;59475;52.464;13.590;2023-05-10T07:46:33;19.70;44.56
71627;DHT22;59475;52.464;13.590;2023-05-10T07:48:59;19.82;44.53
71627;DHT22;59475;52.464;13.590;2023-05-10T07:51:24;20.09;44.62
71627;DHT22;59475;52.464;13.590;2023-05-10T07:53:49;20.08;44.50
71627;DHT22;59475;52.464;13.590;2023-05-10T07:56:29;20.53;43.54
71627;DHT22;59475;52.464;13.590;2023-05-10T07:58:55;20.77;43.44
71627;DHT22;59475;52.464;13.590;2023-05-10T08:01:21;20.75;43.32
71627;DHT22;59475;52.464;13.590;2023-05-10T08:03:46;21.28;42.09
71627;DHT22;59475;52.464;13.590;2023-05-10T08:06:12;21.06;42.03
71627;DHT22;59475;52.464;13.590;2023-05-10T08:08:37;21.46;42.51
71627;DHT22;59475;52.464;13.590;2023-05-10T08:11:03;21.43;41.54
71627;DHT22;59475;52.464;13.590;2023-05-10T08:13:30;21.50;41.60
71627;DHT22;59475;52.464;13.590;2023-05-10T08:15:56;21.97;41.41
71627;DHT22;59475;52.464;13.590;2023-05-10T08:18:21;22.15;40.87
71627;DHT22;59475;52.464;13.590;2023-05-10T08:20:47;22.52;40.29
71627;DHT22;59475;52.464;13.590;2023-05-10T08:23:12;22.39;40.10
71627;DHT22;59475;52.464;13.590;2023-05-10T08:25:38;22.41;39.78
71627;DHT22;59475;52.464;13.590;2023-05-10T08:28:04;22.64;39.74
71627;DHT22;59475;52.464;13.590;2023-05-10T08:30:29;22.81;39.20
71627;DHT22;59475;52.464;13.590;2023-05-10T08:32:55;22.59;39.41
71627;DHT22;59475;52.464;13.590;2023-05-10T08:35:20;22.84;40.55
71627;DHT22;59475;52.464;13.590;2023-05-10T08:37:45;23.51;39.99
71627;DHT22;59475;52.464;13.590;2023-05-10T08:40:11;23.99;38.66
71627;DHT22;59475;52.464;13.590;2023-05-10T08:42:40;24.00;38.61
71627;DHT22;59475;52.464;13.590;2023-05-10T08:45:07;24.17;38.39
71627;DHT22;59475;52.464;13.590;2023-05-10T08:47:36;24.52;37.36
71627;DHT22;59475;52.464;13.590;2023-05-10T08:50:02;24.73;36.63
71627;DHT22;59475;52.464;13.590;2023-05-10T08:52:30;24.68;36.82
71627;DHT22;59475;52.464;13.590;2023-05-10T08:54:56;24.42;37.15
71627;DHT22;59475;52.464;13.590;2023-05-10T08:57:21;24.38;37.55
71627;DHT22;59475;52.464;13.590;2023-05-10T08:59:47;24.56;36.37
71627;DHT22;59475;52.464;13.590;2023-05-10T09:02:13;24.87;37.11
71627;DHT22;59475;52.464;13.590;2023-05-10T09:04:39;25.06;36.16
71627;DHT22;59475;52.464;13.590;2023-05-10T09:07:06;25.20;35.78
71627;DHT22;59475;52.464;13.590;2023-05-10T09:09:31;24.73;36.19
71627;DHT22;59475;52.464;13.590;2023-05-10T09:11:57;24.84;35.79
71627;DHT22;59475;52.464;13.590;2023-05-10T09:14:24;24.65;36.22
71627;DHT22;59475;52.464;13.590;2023-05-10T09:16:50;24.72;36.34
71627;DHT22;59475;52.464;13.590;2023-05-10T09:19:15;24.76;36.34
71627;DHT22;59475;52.464;13.590;2023-05-10T09:21:40;24.76;36.55
71627;DHT22;59475;52.464;13.590;2023-05-10T09:24:07;24.59;36.18
71627;DHT22;59475;52.464;13.590;2023-05-10T09:26:33;24.34;37.24
71627;DHT22;59475;52.464;13.590;2023-05-10T09:29:01;24.48;36.42
71627;DHT22;59475;52.464;13.590;2023-05-10T09:34:08;25.14;35.49
71627;DHT22;59475;52.464;13.590;2023-05-10T09:36:34;24.55;36.68
71627;DHT22;59475;52.464;13.590;2023-05-10T09:38:59;24.66;37.27
71627;DHT22;59475;52.464;13.590;2023-05-10T09:41:25;25.13;36.75
71627;DHT22;59475;52.464;13.590;2023-05-10T09:43:55;25.31;35.67
71627;DHT22;59475;52.464;13.590;2023-05-10T09:46:21;25.38;35.71
71627;DHT22;59475;52.464;13.590;2023-05-10T09:48:48;25.44;35.46
71627;DHT22;59475;52.464;13.590;2023-05-10T09:51:20;25.55;36.02
71627;DHT22;59475;52.464;13.590;2023-05-10T09:53:45;25.78;34.53
71627;DHT22;59475;52.464;13.590;2023-05-10T09:56:11;25.71;35.30
71627;DHT22;59475;52.464;13.590;2023-05-10T09:58:37;25.89;34.92
71627;DHT22;59475;52.464;13.590;2023-05-10T10:01:11;26.34;35.30
71627;DHT22;59475;52.464;13.590;2023-05-10T10:03:41;26.86;34.83
71627;DHT22;59475;52.464;13.590;2023-05-10T10:06:07;26.81;35.30
71627;DHT22;59475;52.464;13.590;2023-05-10T10:08:33;26.55;33.62
71627;DHT22;59475;52.464;13.590;2023-05-10T10:10:59;25.78;34.46
71627;DHT22;59475;52.464;13.590;2023-05-10T10:13:24;25.88;34.97
71627;DHT22;59475;52.464;13.590;2023-05-10T10:15:51;25.99;34.71
71627;DHT22;59475;52.464;13.590;2023-05-10T10:18:17;25.79;35.05
71627;DHT22;59475;52.464;13.590;2023-05-10T10:20:43;26.03;34.55
71627;DHT22;59475;52.464;13.590;2023-05-10T10:23:08;26.04;34.96
71627;DHT22;59475;52.464;13.590;2023-05-10T10:25:35;25.92;35.19
71627;DHT22;59475;52.464;13.590;2023-05-10T10:28:16;26.39;34.42
71627;DHT22;59475;52.464;13.590;2023-05-10T10:30:48;26.39;33.70
71627;DHT22;59475;52.464;13.590;2023-05-10T10:35:58;26.04;34.26
71627;DHT22;59475;52.464;13.590;2023-05-10T10:38:23;25.71;33.46
71627;DHT22;59475;52.464;13.590;2023-05-10T10:41:02;25.90;34.35
71627;DHT22;59475;52.464;13.590;2023-05-10T10:43:28;26.02;34.15
71627;DHT22;59475;52.464;13.590;2023-05-10T10:46:15;26.06;34.26
71627;DHT22;59475;52.464;13.590;2023-05-10T10:48:48;26.17;34.59
71627;DHT22;59475;52.464;13.590;2023-05-10T10:51:14;26.45;33.05
71627;DHT22;59475;52.464;13.590;2023-05-10T10:53:40;26.95;33.24
71627;DHT22;59475;52.464;13.590;2023-05-10T10:56:15;26.55;33.56
71627;DHT22;59475;52.464;13.590;2023-05-10T10:58:41;26.03;34.23
71627;DHT22;59475;52.464;13.590;2023-05-10T11:03:38;26.10;34.64
71627;DHT22;59475;52.464;13.590;2023-05-10T11:06:03;26.00;34.63
71627;DHT22;59475;52.464;13.590;2023-05-10T11:08:30;26.36;34.26
71627;DHT22;59475;52.464;13.590;2023-05-10T11:13:43;26.96;33.25
71627;DHT22;59475;52.464;13.590;2023-05-10T11:18:39;27.27;33.48
71627;DHT22;59475;52.464;13.590;2023-05-10T11:21:05;27.12;33.16
71627;DHT22;59475;52.464;13.590;2023-05-10T11:23:48;27.06;33.23
71627;DHT22;59475;52.464;13.590;2023-05-10T11:26:15;26.85;33.60
71627;DHT22;59475;52.464;13.590;2023-05-10T11:28:47;26.77;32.82
71627;DHT22;59475;52.464;13.590;2023-05-10T11:31:16;26.71;33.56
71627;DHT22;59475;52.464;13.590;2023-05-10T11:33:55;26.71;33.56
71627;DHT22;59475;52.464;13.590;2023-05-10T11:36:24;26.62;33.76
71627;DHT22;59475;52.464;13.590;2023-05-10T11:38:51;26.57;35.00
71627;DHT22;59475;52.464;13.590;2023-05-10T11:41:18;26.26;34.26
71627;DHT22;59475;52.464;13.590;2023-05-10T11:43:46;26.75;34.97
71627;DHT22;59475;52.464;13.590;2023-05-10T11:46:13;26.94;33.76
71627;DHT22;59475;52.464;13.590;2023-05-10T11:48:39;26.78;33.44
71627;DHT22;59475;52.464;13.590;2023-05-10T11:51:06;26.39;33.88
71627;DHT22;59475;52.464;13.590;2023-05-10T11:53:32;26.51;33.45
71627;DHT22;59475;52.464;13.590;2023-05-10T11:56:06;26.29;33.25
71627;DHT22;59475;52.464;13.590;2023-05-10T11:58:32;26.17;34.22
71627;DHT22;59475;52.464;13.590;2023-05-10T12:00:59;26.10;34.02
71627;DHT22;59475;52.464;13.590;2023-05-10T12:03:25;26.45;34.55
71627;DHT22;59475;52.464;13.590;2023-05-10T12:05:50;26.67;32.50
71627;DHT22;59475;52.464;13.590;2023-05-10T12:08:21;26.31;32.81
71627;DHT22;59475;52.464;13.590;2023-05-10T12:10:46;26.17;33.22
71627;DHT22;59475;52.464;13.590;2023-05-10T12:13:13;26.27;33.23
71627;DHT22;59475;52.464;13.590;2023-05-10T12:15:39;26.29;33.76
71627;DHT22;59475;52.464;13.590;2023-05-10T12:18:05;26.34;33.97
71627;DHT22;59475;52.464;13.590;2023-05-10T12:20:31;25.96;32.24
71627;DHT22;59475;52.464;13.590;2023-05-10T12:22:58;25.69;33.12
71627;DHT22;59475;52.464;13.590;2023-05-10T12:25:33;25.76;33.26
71627;DHT22;59475;52.464;13.590;2023-05-10T12:28:00;25.55;32.95
71627;DHT22;59475;52.464;13.590;2023-05-10T12:30:30;25.31;33.22
71627;DHT22;59475;52.464;13.590;2023-05-10T12:33:00;24.93;33.61
71627;DHT22;59475;52.464;13.590;2023-05-10T12:35:26;24.93;33.98
71627;DHT22;59475;52.464;13.590;2023-05-10T12:37:54;24.94;34.18
71627;DHT22;59475;52.464;13.590;2023-05-10T12:40:20;24.89;34.48
71627;DHT22;59475;52.464;13.590;2023-05-10T12:42:45;24.72;33.85
71627;DHT22;59475;52.464;13.590;2023-05-10T12:45:11;24.71;33.38
71627;DHT22;59475;52.464;13.590;2023-05-10T12:47:37;24.56;33.28
71627;DHT22;59475;52.464;13.590;2023-05-10T12:50:03;24.64;32.61
71627;DHT22;59475;52.464;13.590;2023-05-10T12:52:30;24.56;33.52
71627;DHT22;59475;52.464;13.590;2023-05-10T12:54:56;24.48;33.24
71627;DHT22;59475;52.464;13.590;2023-05-10T12:57:22;24.54;33.66
71627;DHT22;59475;52.464;13.590;2023-05-10T12:59:47;24.45;32.54
71627;DHT22;59475;52.464;13.590;2023-05-10T13:02:13;24.59;33.58
71627;DHT22;59475;52.464;13.590;2023-05-10T13:04:40;24.61;33.97
71627;DHT22;59475;52.464;13.590;2023-05-10T13:07:09;24.41;33.88
71627;DHT22;59475;52.464;13.590;2023-05-10T13:09:35;24.45;34.57
71627;DHT22;59475;52.464;13.590;2023-05-10T13:12:00;24.47;33.85
71627;DHT22;59475;52.464;13.590;2023-05-10T13:14:26;24.52;33.74
71627;DHT22;59475;52.464;13.590;2023-05-10T13:16:51;24.41;32.89
71627;DHT22;59475;52.464;13.590;2023-05-10T13:19:17;24.35;33.65
71627;DHT22;59475;52.464;13.590;2023-05-10T13:21:43;24.44;33.92
71627;DHT22;59475;52.464;13.590;2023-05-10T13:24:10;24.47;33.46
71627;DHT22;59475;52.464;13.590;2023-05-10T13:26:36;24.61;33.61
71627;DHT22;59475;52.464;13.590;2023-05-10T13:29:02;24.72;34.07
71627;DHT22;59475;52.464;13.590;2023-05-10T13:31:27;24.64;34.21
71627;DHT22;59475;52.464;13.590;2023-05-10T13:33:52;24.52;33.98
71627;DHT22;59475;52.464;13.590;2023-05-10T13:36:18;24.28;32.94
71627;DHT22;59475;52.464;13.590;2023-05-10T13:38:43;24.16;33.53
71627;DHT22;59475;52.464;13.590;2023-05-10T13:41:08;24.17;33.34
71627;DHT22;59475;52.464;13.590;2023-05-10T13:43:34;24.21;33.21
71627;DHT22;59475;52.464;13.590;2023-05-10T13:46:00;24.24;34.20
71627;DHT22;59475;52.464;13.590;2023-05-10T13:48:26;24.27;34.84
71627;DHT22;59475;52.464;13.590;2023-05-10T13:50:52;24.24;32.65
71627;DHT22;59475;52.464;13.590;2023-05-10T13:53:17;24.31;33.69
71627;DHT22;59475;52.464;13.590;2023-05-10T13:55:42;24.28;33.91
71627;DHT22;59475;52.464;13.590;2023-05-10T13:58:08;24.16;34.72
71627;DHT22;59475;52.464;13.590;2023-05-10T14:00:33;23.94;33.65
71627;DHT22;59475;52.464;13.590;2023-05-10T14:02:58;23.86;33.56
71627;DHT22;59475;52.464;13.590;2023-05-10T14:05:24;23.93;33.42
71627;DHT22;59475;52.464;13.590;2023-05-10T14:07:50;23.93;33.21
71627;DHT22;59475;52.464;13.590;2023-05-10T14:10:16;23.79;34.33
71627;DHT22;59475;52.464;13.590;2023-05-10T14:12:41;23.80;34.86
71627;DHT22;59475;52.464;13.590;2023-05-10T14:15:07;23.90;35.18
71627;DHT22;59475;52.464;13.590;2023-05-10T14:17:33;23.89;35.16
71627;DHT22;59475;52.464;13.590;2023-05-10T14:19:58;23.96;35.46
71627;DHT22;59475;52.464;13.590;2023-05-10T14:22:24;24.07;35.25
71627;DHT22;59475;52.464;13.590;2023-05-10T14:24:49;24.16;33.89
71627;DHT22;59475;52.464;13.590;2023-05-10T14:27:15;24.08;34.44
71627;DHT22;59475;52.464;13.590;2023-05-10T14:29:41;24.06;33.69
71627;DHT22;59475;52.464;13.590;2023-05-10T14:32:06;24.03;34.98
71627;DHT22;59475;52.464;13.590;2023-05-10T14:34:32;24.07;34.35
71627;DHT22;59475;52.464;13.590;2023-05-10T14:36:57;23.93;34.02
71627;DHT22;59475;52.464;13.590;2023-05-10T14:39:23;23.89;34.60
71627;DHT22;59475;52.464;13.590;2023-05-10T14:41:49;23.92;34.24
71627;DHT22;59475;52.464;13.590;2023-05-10T14:44:16;23.89;34.70
71627;DHT22;59475;52.464;13.590;2023-05-10T14:46:41;23.86;34.70
71627;DHT22;59475;52.464;13.590;2023-05-10T14:49:07;23.84;34.29
71627;DHT22;59475;52.464;13.590;2023-05-10T14:51:32;23.84;34.50
71627;DHT22;59475;52.464;13.590;2023-05-10T14:53:58;23.90;34.42
71627;DHT22;59475;52.464;13.590;2023-05-10T14:56:24;23.87;33.83
71627;DHT22;59475;52.464;13.590;2023-05-10T14:58:50;23.86;34.13
71627;DHT22;59475;52.464;13.590;2023-05-10T15:01:16;23.76;33.89
71627;DHT22;59475;52.464;13.590;2023-05-10T15:03:41;23.74;35.36
71627;DHT22;59475;52.464;13.590;2023-05-10T15:06:08;23.70;35.05
71627;DHT22;59475;52.464;13.590;2023-05-10T15:08:33;23.70;35.75
71627;DHT22;59475;52.464;13.590;2023-05-10T15:10:59;23.62;34.57
71627;DHT22;59475;52.464;13.590;2023-05-10T15:13:24;23.59;33.80
71627;DHT22;59475;52.464;13.590;2023-05-10T15:15:50;23.52;33.98
71627;DHT22;59475;52.464;13.590;2023-05-10T15:18:15;23.39;34.27
71627;DHT22;59475;52.464;13.590;2023-05-10T15:20:41;23.17;34.86
71627;DHT22;59475;52.464;13.590;2023-05-10T15:23:06;23.08;35.32
71627;DHT22;59475;52.464;13.590;2023-05-10T15:25:31;23.11;35.41
71627;DHT22;59475;52.464;13.590;2023-05-10T15:28:00;23.21;35.66
71627;DHT22;59475;52.464;13.590;2023-05-10T15:30:25;23.34;35.49
71627;DHT22;59475;52.464;13.590;2023-05-10T15:32:51;23.42;35.93
71627;DHT22;59475;52.464;13.590;2023-05-10T15:35:16;23.49;34.79
71627;DHT22;59475;52.464;13.590;2023-05-10T15:37:42;23.46;35.38
71627;DHT22;59475;52.464;13.590;2023-05-10T15:40:08;23.34;34.86
71627;DHT22;59475;52.464;13.590;2023-05-10T15:42:33;23.17;34.89
71627;DHT22;59475;52.464;13.590;2023-05-10T15:44:59;23.01;35.29
71627;DHT22;59475;52.464;13.590;2023-05-10T15:47:25;22.87;35.64